Time;durP1;ratioP1;P1;durP2;ratioP2;P2;SDS_P1;SDS_P2;PMS_P1;PMS_P2;Temp;Humidity;BMP_temperature;BMP_pressure;BME280_temperature;BME280_humidity;BME280_pressure;Samples;Min_cycle;Max_cycle;Signal;HPM_P1;HPM_P2
2021/06/29 00:01:58;;;;;;;6.53;5.95;;;23.10;65.40;;;;;;5054899;28;20194;-66
2021/06/29 00:04:24;;;;;;;5.70;5.30;;;23.10;66.20;;;;;;5054833;28;20583;-65
2021/06/29 00:06:49;;;;;;;6.10;5.70;;;23.10;65.40;;;;;;5053571;28;20675;-65
2021/06/29 00:09:15;;;;;;;6.30;5.80;;;23.10;65.40;;;;;;5054617;28;20195;-65
2021/06/29 00:11:42;;;;;;;6.22;5.72;;;23.10;65.40;;;;;;5054213;28;20541;-66
2021/06/29 00:14:07;;;;;;;6.68;6.18;;;23.10;65.40;;;;;;5053799;28;20164;-65
2021/06/29 00:16:33;;;;;;;6.28;5.82;;;23.10;65.40;;;;;;5054351;28;20225;-65
2021/06/29 00:18:58;;;;;;;6.43;5.93;;;23.10;65.40;;;;;;5054346;28;20215;-65
2021/06/29 00:21:24;;;;;;;6.70;6.18;;;23.10;65.40;;;;;;5053751;28;20171;-65
2021/06/29 00:23:49;;;;;;;6.10;5.60;;;23.10;65.40;;;;;;5054028;28;20236;-65
2021/06/29 00:26:15;;;;;;;6.07;5.68;;;23.10;65.40;;;;;;5054182;28;20191;-64
2021/06/29 00:28:40;;;;;;;6.80;6.30;;;23.10;65.40;;;;;;5053181;28;20175;-65
2021/06/29 00:31:06;;;;;;;6.20;5.80;;;23.10;65.40;;;;;;5053618;28;20215;-65
2021/06/29 00:33:32;;;;;;;6.68;6.18;;;23.10;65.40;;;;;;5053721;28;20171;-65
2021/06/29 00:35:57;;;;;;;6.30;5.80;;;23.10;65.40;;;;;;5053367;28;20232;-66
2021/06/29 00:38:23;;;;;;;5.90;5.50;;;23.10;65.40;;;;;;5053893;28;20313;-66
2021/06/29 00:40:49;;;;;;;6.20;5.80;;;23.10;65.40;;;;;;5053038;28;20182;-65
2021/06/29 00:43:15;;;;;;;6.22;5.72;;;23.10;65.40;;;;;;5036382;28;20186;-66
2021/06/29 00:45:43;;;;;;;6.35;5.85;;;23.00;65.40;;;;;;5053675;28;20259;-65
2021/06/29 00:48:09;;;;;;;6.25;5.75;;;23.00;65.40;;;;;;5053195;28;20182;-65
2021/06/29 00:50:35;;;;;;;6.20;5.80;;;23.10;65.40;;;;;;5053369;28;20179;-65
2021/06/29 00:53:00;;;;;;;5.88;5.47;;;23.10;65.50;;;;;;5035946;28;20548;-65
2021/06/29 00:55:26;;;;;;;6.05;5.55;;;23.00;65.30;;;;;;5053083;28;20638;-65
2021/06/29 00:57:51;;;;;;;5.93;5.53;;;23.00;65.30;;;;;;5053068;28;20211;-65
2021/06/29 01:00:18;;;;;;;6.70;6.10;;;23.00;65.30;;;;;;5019362;28;20641;-65
2021/06/29 01:02:43;;;;;;;6.55;6.05;;;23.00;65.40;;;;;;5052600;28;20179;-66
2021/06/29 01:05:10;;;;;;;6.05;5.65;;;23.00;65.20;;;;;;5053521;28;20182;-65
2021/06/29 01:07:35;;;;;;;6.35;5.75;;;23.00;65.30;;;;;;5035153;28;20179;-64
2021/06/29 01:10:09;;;;;;;6.25;5.80;;;23.10;65.40;;;;;;5052650;28;20171;-65
2021/06/29 01:12:35;;;;;;;6.57;6.07;;;23.00;65.30;;;;;;5053352;28;20258;-65
2021/06/29 01:15:01;;;;;;;6.00;5.50;;;23.00;65.30;;;;;;5053479;28;20652;-65
2021/06/29 01:17:27;;;;;;;6.57;6.07;;;23.10;65.40;;;;;;5052566;28;20210;-65
2021/06/29 01:19:53;;;;;;;5.80;5.30;;;23.00;65.30;;;;;;5053407;28;20221;-64
2021/06/29 01:22:20;;;;;;;5.97;5.53;;;23.00;65.30;;;;;;5053085;28;20171;-65
2021/06/29 01:24:52;;;;;;;6.18;5.78;;;23.00;65.40;;;;;;5051903;28;20731;-64
2021/06/29 01:27:35;;;;;;;5.90;5.50;;;23.00;65.20;;;;;;5053241;28;20186;-64
2021/06/29 01:32:27;;;;;;;6.18;5.68;;;23.00;65.40;;;;;;5053213;28;20183;-65
2021/06/29 01:34:53;;;;;;;6.13;5.65;;;23.00;65.20;;;;;;5052621;28;20179;-66
2021/06/29 01:37:19;;;;;;;6.43;5.85;;;23.00;65.20;;;;;;5052003;28;20254;-66
2021/06/29 01:39:54;;;;;;;5.82;5.43;;;23.00;65.20;;;;;;5052680;28;20183;-66
2021/06/29 01:42:19;;;;;;;5.70;5.30;;;23.00;65.30;;;;;;5052770;28;20197;-66
2021/06/29 01:44:45;;;;;;;6.38;5.97;;;23.00;65.20;;;;;;5050848;28;20630;-65
2021/06/29 01:47:13;;;;;;;6.22;5.75;;;23.00;65.20;;;;;;5052684;28;20645;-66
2021/06/29 01:49:38;;;;;;;6.10;5.60;;;23.00;65.20;;;;;;5052478;28;20183;-65
2021/06/29 01:52:04;;;;;;;6.07;5.68;;;23.00;65.20;;;;;;5051790;28;20167;-65
2021/06/29 01:54:30;;;;;;;5.88;5.47;;;23.00;65.20;;;;;;5052483;28;20171;-65
2021/06/29 01:56:56;;;;;;;6.32;5.72;;;23.00;65.20;;;;;;5052848;28;20191;-65
2021/06/29 01:59:22;;;;;;;6.05;5.65;;;23.00;65.20;;;;;;5051631;28;20318;-65
2021/06/29 02:01:48;;;;;;;6.38;5.88;;;23.00;65.20;;;;;;5052231;28;20630;-65
2021/06/29 02:04:13;;;;;;;5.97;5.57;;;23.00;65.20;;;;;;5052356;28;20175;-65
2021/06/29 02:06:40;;;;;;;6.00;5.60;;;23.00;65.20;;;;;;5051553;28;20175;-65
2021/06/29 02:09:07;;;;;;;6.13;5.63;;;23.00;65.20;;;;;;5052288;28;20576;-65
2021/06/29 02:11:32;;;;;;;6.03;5.63;;;23.00;65.20;;;;;;5052168;28;20191;-64
2021/06/29 02:13:58;;;;;;;6.45;5.85;;;23.00;65.30;;;;;;5051744;28;20233;-64
2021/06/29 02:16:23;;;;;;;6.07;5.68;;;23.00;65.20;;;;;;5052482;28;20175;-65
2021/06/29 02:18:49;;;;;;;6.35;5.85;;;23.00;65.20;;;;;;5051713;28;20697;-64
2021/06/29 02:21:15;;;;;;;5.95;5.55;;;22.90;65.20;;;;;;5051552;28;20626;-65
2021/06/29 02:23:40;;;;;;;5.82;5.43;;;22.90;65.20;;;;;;5052059;28;20179;-65
2021/06/29 02:26:06;;;;;;;6.07;5.68;;;22.90;65.20;;;;;;5052294;28;20171;-65
2021/06/29 02:28:31;;;;;;;6.20;5.70;;;23.00;65.20;;;;;;5051297;28;20187;-64
2021/06/29 02:30:57;;;;;;;6.03;5.63;;;22.90;65.20;;;;;;5052027;28;20226;-64
2021/06/29 02:33:23;;;;;;;5.95;5.55;;;23.00;65.20;;;;;;5051296;28;20171;-65
2021/06/29 02:35:48;;;;;;;6.40;5.90;;;22.90;65.20;;;;;;5051750;28;20198;-65
2021/06/29 02:38:14;;;;;;;6.47;6.00;;;22.90;65.20;;;;;;5051899;28;20214;-66
2021/06/29 02:40:39;;;;;;;6.00;5.50;;;22.90;65.20;;;;;;5050851;28;20207;-66
2021/06/29 02:43:05;;;;;;;6.55;6.05;;;22.90;65.20;;;;;;5052207;28;20178;-65
2021/06/29 02:45:30;;;;;;;5.78;5.35;;;23.00;65.20;;;;;;5051657;28;20171;-65
2021/06/29 02:47:58;;;;;;;6.38;5.93;;;22.90;65.20;;;;;;5051272;28;20214;-65
2021/06/29 02:50:23;;;;;;;5.97;5.47;;;22.90;65.20;;;;;;5052030;28;20202;-65
2021/06/29 02:52:49;;;;;;;5.97;5.45;;;22.90;65.20;;;;;;5033662;28;20634;-65
2021/06/29 02:55:15;;;;;;;6.15;5.65;;;22.90;65.20;;;;;;5052845;28;20182;-65
2021/06/29 02:57:41;;;;;;;5.72;5.30;;;22.90;65.20;;;;;;5055592;28;20205;-66
2021/06/29 03:00:07;;;;;;;5.97;5.57;;;22.90;65.20;;;;;;5055695;28;20270;-65
2021/06/29 03:02:33;;;;;;;5.97;5.57;;;22.90;65.20;;;;;;5054643;28;20179;-65
2021/06/29 03:04:58;;;;;;;6.05;5.55;;;22.90;65.10;;;;;;5055878;28;20179;-65
2021/06/29 03:07:24;;;;;;;6.07;5.68;;;22.90;65.20;;;;;;5055877;28;20181;-65
2021/06/29 03:09:49;;;;;;;6.60;5.93;;;22.90;65.20;;;;;;5054583;28;20171;-65
2021/06/29 03:12:15;;;;;;;5.40;5.00;;;22.90;65.10;;;;;;5055641;28;20187;-65
2021/06/29 03:14:41;;;;;;;6.30;5.80;;;22.90;65.20;;;;;;5055264;28;20167;-65
2021/06/29 03:17:07;;;;;;;5.57;5.18;;;22.90;65.10;;;;;;5054710;28;20171;-65
2021/06/29 03:19:32;;;;;;;5.85;5.45;;;22.90;65.10;;;;;;5054922;28;20266;-64
2021/06/29 03:21:58;;;;;;;5.63;5.22;;;22.90;65.20;;;;;;5055593;28;20182;-64
2021/06/29 03:24:24;;;;;;;6.00;5.60;;;22.90;65.10;;;;;;5054749;28;20179;-64
2021/06/29 03:26:49;;;;;;;5.55;5.05;;;22.90;65.20;;;;;;5055168;28;20565;-64
2021/06/29 03:29:15;;;;;;;5.68;5.28;;;22.90;65.10;;;;;;5055354;28;20285;-64
2021/06/29 03:31:40;;;;;;;5.70;5.30;;;22.90;65.10;;;;;;5053916;28;20373;-65
2021/06/29 03:34:06;;;;;;;5.95;5.43;;;22.90;65.10;;;;;;5055373;28;20179;-65
2021/06/29 03:36:32;;;;;;;5.68;5.28;;;22.90;65.20;;;;;;5054366;28;20202;-66
2021/06/29 03:38:57;;;;;;;5.60;5.20;;;22.90;65.10;;;;;;5055196;28;20217;-66
2021/06/29 03:41:24;;;;;;;5.75;5.25;;;22.90;65.20;;;;;;5055242;28;20167;-65
2021/06/29 03:43:49;;;;;;;5.15;4.75;;;22.90;65.10;;;;;;5054031;28;21006;-65
2021/06/29 03:46:15;;;;;;;5.75;5.35;;;22.90;65.10;;;;;;5054855;28;20271;-65
2021/06/29 03:48:40;;;;;;;5.70;5.20;;;22.90;65.20;;;;;;5054515;28;20175;-65
2021/06/29 03:51:06;;;;;;;6.18;5.78;;;22.90;65.10;;;;;;5054405;28;20175;-65
2021/06/29 03:53:31;;;;;;;5.78;5.38;;;22.90;65.10;;;;;;5054747;28;20237;-65
2021/06/29 03:55:57;;;;;;;5.68;5.28;;;22.90;65.10;;;;;;5054944;28;20254;-65
2021/06/29 03:58:22;;;;;;;6.20;5.70;;;22.90;65.20;;;;;;5054043;28;20210;-65
2021/06/29 04:00:48;;;;;;;6.18;5.72;;;22.90;65.10;;;;;;5054477;28;20171;-65
2021/06/29 04:03:13;;;;;;;5.78;5.38;;;22.90;65.20;;;;;;5054883;28;20188;-65
2021/06/29 04:05:39;;;;;;;5.20;4.80;;;22.90;65.10;;;;;;5053734;28;20637;-65
2021/06/29 04:08:05;;;;;;;5.35;4.95;;;22.90;65.10;;;;;;5054046;28;20198;-65
2021/06/29 04:10:30;;;;;;;5.30;4.90;;;22.90;65.10;;;;;;5054486;28;20512;-65
2021/06/29 04:12:57;;;;;;;5.30;4.90;;;22.90;65.10;;;;;;5053943;28;20183;-65
2021/06/29 04:15:23;;;;;;;5.60;5.20;;;22.90;65.10;;;;;;5054605;28;20171;-65
2021/06/29 04:17:48;;;;;;;5.60;5.20;;;22.90;65.10;;;;;;5054103;28;20276;-65
2021/06/29 04:20:14;;;;;;;5.15;4.85;;;22.90;65.10;;;;;;5054224;28;20272;-65
2021/06/29 04:22:39;;;;;;;5.47;5.07;;;22.90;65.20;;;;;;5054146;28;20175;-65
2021/06/29 04:25:06;;;;;;;4.90;4.60;;;22.90;65.10;;;;;;5054578;28;20183;-65
2021/06/29 04:27:32;;;;;;;5.40;5.10;;;22.90;65.10;;;;;;5053595;28;20180;-64
2021/06/29 04:29:57;;;;;;;5.25;4.95;;;22.90;65.10;;;;;;5054067;28;20174;-65
2021/06/29 04:32:23;;;;;;;5.72;5.22;;;22.90;65.90;;;;;;5054346;28;20175;-65
2021/06/29 04:34:49;;;;;;;5.50;5.10;;;22.90;65.10;;;;;;5053532;28;20682;-66
2021/06/29 04:37:17;;;;;;;5.32;4.93;;;22.90;65.20;;;;;;5054329;28;20182;-66
2021/06/29 04:39:44;;;;;;;5.63;5.22;;;22.90;65.10;;;;;;5054128;28;20313;-66
2021/06/29 04:42:09;;;;;;;5.57;5.18;;;22.90;65.10;;;;;;5053578;28;20194;-66
2021/06/29 04:44:38;;;;;;;5.57;5.18;;;22.90;65.10;;;;;;5053853;28;20183;-66
2021/06/29 04:47:05;;;;;;;5.45;5.05;;;22.90;65.10;;;;;;5053734;28;20222;-66
2021/06/29 04:49:30;;;;;;;5.93;5.43;;;22.90;65.10;;;;;;5053846;28;20630;-65
2021/06/29 04:51:56;;;;;;;5.28;4.88;;;22.90;65.10;;;;;;5054275;28;20198;-65
2021/06/29 04:54:21;;;;;;;4.90;4.55;;;22.90;65.10;;;;;;5053195;28;20175;-65
2021/06/29 04:56:47;;;;;;;5.40;5.00;;;22.90;65.10;;;;;;5053485;28;20217;-65
2021/06/29 04:59:12;;;;;;;4.97;4.68;;;22.90;65.10;;;;;;5053631;28;20632;-66
2021/06/29 05:01:38;;;;;;;4.97;4.68;;;22.90;65.10;;;;;;5053063;28;20175;-65
2021/06/29 05:04:03;;;;;;;5.20;4.88;;;22.90;65.10;;;;;;5054042;28;20175;-65
2021/06/29 05:06:29;;;;;;;5.15;4.78;;;22.90;65.00;;;;;;5054181;28;20261;-65
2021/06/29 05:08:54;;;;;;;5.32;4.90;;;22.90;65.10;;;;;;5052639;28;20637;-65
2021/06/29 05:11:20;;;;;;;5.47;5.07;;;22.90;65.00;;;;;;5053693;28;20175;-65
2021/06/29 05:13:45;;;;;;;5.25;4.90;;;22.90;65.00;;;;;;5053353;28;20233;-65
2021/06/29 05:16:11;;;;;;;5.18;4.80;;;22.90;65.00;;;;;;5052816;28;20254;-65
2021/06/29 05:18:36;;;;;;;5.20;4.80;;;22.90;65.00;;;;;;5053299;28;20207;-65
2021/06/29 05:21:02;;;;;;;4.60;4.30;;;22.90;65.00;;;;;;5053574;28;20171;-65
2021/06/29 05:23:28;;;;;;;5.07;4.78;;;22.90;64.90;;;;;;5052701;28;20175;-65
2021/06/29 05:25:53;;;;;;;5.30;4.90;;;22.90;64.90;;;;;;5053105;28;20241;-65
2021/06/29 05:28:19;;;;;;;5.30;4.90;;;22.90;64.90;;;;;;5053189;28;20541;-64
2021/06/29 05:30:46;;;;;;;4.75;4.45;;;22.90;64.90;;;;;;5052186;28;20231;-65
2021/06/29 05:33:12;;;;;;;5.15;4.85;;;23.00;64.90;;;;;;5053260;28;20654;-65
2021/06/29 05:35:37;;;;;;;4.78;4.47;;;22.90;64.90;;;;;;5053019;28;20261;-66
2021/06/29 05:38:03;;;;;;;4.85;4.55;;;22.90;64.90;;;;;;5052339;28;20207;-66
2021/06/29 05:40:29;;;;;;;4.78;4.47;;;22.90;64.90;;;;;;5053090;28;20182;-66
2021/06/29 05:42:54;;;;;;;4.97;4.68;;;23.00;64.90;;;;;;5052751;28;20712;-66
2021/06/29 05:45:20;;;;;;;4.60;4.30;;;23.00;65.00;;;;;;5052197;28;20171;-66
2021/06/29 05:47:47;;;;;;;4.97;4.68;;;23.00;65.00;;;;;;5052900;28;20179;-65
2021/06/29 05:50:13;;;;;;;5.10;4.80;;;23.00;64.90;;;;;;5052210;28;20182;-65
2021/06/29 05:52:41;;;;;;;5.32;4.93;;;23.00;64.90;;;;;;5052560;28;20274;-65
2021/06/29 05:55:08;;;;;;;4.97;4.68;;;23.00;65.00;;;;;;5052663;28;20163;-65
2021/06/29 05:57:36;;;;;;;4.45;4.15;;;23.00;65.10;;;;;;5051223;28;20661;-66
2021/06/29 06:00:06;;;;;;;4.78;4.47;;;23.00;65.10;;;;;;5053036;28;20270;-65
2021/06/29 06:02:34;;;;;;;4.78;4.47;;;23.00;65.00;;;;;;5052585;28;20227;-66
2021/06/29 06:05:00;;;;;;;4.97;4.68;;;23.00;65.10;;;;;;5051995;28;20535;-65
2021/06/29 06:07:25;;;;;;;4.72;4.43;;;23.00;65.10;;;;;;5052504;28;20163;-65
2021/06/29 06:09:51;;;;;;;4.88;4.57;;;22.90;65.00;;;;;;5052218;28;20175;-65
2021/06/29 06:12:16;;;;;;;4.68;4.38;;;22.90;65.10;;;;;;5051761;28;20163;-65
2021/06/29 06:14:42;;;;;;;4.55;4.25;;;22.90;65.10;;;;;;5052130;28;20178;-66
2021/06/29 06:17:07;;;;;;;4.88;4.57;;;22.90;65.20;;;;;;5052385;28;20699;-65
2021/06/29 06:19:33;;;;;;;4.70;4.30;;;23.00;65.30;;;;;;5051522;28;20219;-65
2021/06/29 06:21:58;;;;;;;4.50;4.20;;;22.90;65.20;;;;;;5052294;28;20171;-65
2021/06/29 06:24:24;;;;;;;5.03;4.72;;;22.90;65.10;;;;;;5052353;28;20185;-65
2021/06/29 06:26:49;;;;;;;4.63;4.32;;;23.00;65.10;;;;;;5051141;28;20176;-65
2021/06/29 06:29:15;;;;;;;4.80;4.40;;;23.00;65.00;;;;;;5051944;28;20646;-65
2021/06/29 06:31:40;;;;;;;5.57;5.05;;;23.00;64.90;;;;;;5051823;28;20547;-65
2021/06/29 06:34:06;;;;;;;4.60;4.30;;;23.10;64.90;;;;;;5051581;28;20597;-66
2021/06/29 06:36:31;;;;;;;4.20;3.92;;;23.10;64.90;;;;;;5051864;28;20270;-66
2021/06/29 06:38:57;;;;;;;4.57;4.28;;;23.10;64.80;;;;;;5052310;28;20238;-66
2021/06/29 06:41:22;;;;;;;4.40;4.10;;;23.10;64.80;;;;;;5051278;28;20210;-66
2021/06/29 06:43:48;;;;;;;4.57;4.28;;;23.10;64.80;;;;;;5052170;28;20175;-65
2021/06/29 06:46:13;;;;;;;7.38;4.32;;;23.10;64.80;;;;;;5052272;28;20199;-67
2021/06/29 06:48:39;;;;;;;4.47;4.18;;;23.10;64.00;;;;;;5051244;28;20175;-66
2021/06/29 06:51:05;;;;;;;5.13;4.70;;;23.10;64.80;;;;;;5052167;28;20265;-65
2021/06/29 06:53:31;;;;;;;4.45;4.15;;;23.10;65.00;;;;;;5051151;28;20681;-66
2021/06/29 06:55:57;;;;;;;4.60;4.30;;;23.10;65.00;;;;;;5051850;28;20179;-65
2021/06/29 06:58:22;;;;;;;4.55;4.25;;;23.10;65.10;;;;;;5051735;28;20246;-65
2021/06/29 07:00:48;;;;;;;4.78;4.47;;;23.10;65.10;;;;;;5050584;28;20995;-65
2021/06/29 07:03:13;;;;;;;4.50;4.20;;;23.10;65.10;;;;;;5051744;28;20175;-65
2021/06/29 07:05:39;;;;;;;4.32;4.03;;;23.10;65.30;;;;;;5051537;28;20174;-65
2021/06/29 07:08:04;;;;;;;4.75;4.35;;;23.10;65.20;;;;;;5051142;28;20186;-64
2021/06/29 07:10:30;;;;;;;5.07;4.68;;;23.10;65.10;;;;;;5051410;28;20179;-65
2021/06/29 07:12:55;;;;;;;4.50;4.20;;;23.10;65.10;;;;;;5051756;28;20171;-65
2021/06/29 07:15:21;;;;;;;4.93;4.63;;;23.10;65.10;;;;;;5051245;28;20198;-65
2021/06/29 07:17:50;;;;;;;4.82;4.47;;;23.10;65.10;;;;;;5051479;28;20199;-65
2021/06/29 07:20:15;;;;;;;5.03;4.72;;;23.10;65.20;;;;;;5051777;28;20172;-64
2021/06/29 07:22:41;;;;;;;4.75;4.35;;;23.10;65.20;;;;;;5050796;28;20540;-64
2021/06/29 07:25:07;;;;;;;4.80;4.40;;;23.10;65.30;;;;;;5051506;28;20611;-64
2021/06/29 07:27:32;;;;;;;4.45;4.15;;;23.10;65.20;;;;;;5051136;28;20240;-64
2021/06/29 07:29:58;;;;;;;5.03;4.63;;;23.10;65.10;;;;;;5050794;28;20262;-65
2021/06/29 07:32:23;;;;;;;5.40;5.03;;;23.10;65.10;;;;;;5051177;28;20227;-66
2021/06/29 07:34:49;;;;;;;4.68;4.38;;;23.10;65.10;;;;;;5051326;28;20191;-66
2021/06/29 07:37:14;;;;;;;5.03;4.72;;;23.10;65.10;;;;;;5050777;28;20186;-66
2021/06/29 07:39:43;;;;;;;4.95;4.50;;;23.10;65.10;;;;;;5051014;28;20183;-66
2021/06/29 07:42:08;;;;;;;6.10;5.60;;;23.10;65.00;;;;;;5052814;28;20171;-66
2021/06/29 07:44:34;;;;;;;6.78;6.10;;;23.20;65.40;;;;;;5053970;28;20254;-66
2021/06/29 07:46:59;;;;;;;8.07;7.32;;;23.20;65.70;;;;;;5055122;28;20668;-65
2021/06/29 07:49:26;;;;;;;7.47;6.68;;;23.20;65.90;;;;;;5055018;28;20167;-64
2021/06/29 07:51:51;;;;;;;7.00;6.40;;;23.30;65.90;;;;;;5053847;28;20183;-64
2021/06/29 07:54:18;;;;;;;7.13;6.53;;;23.20;65.70;;;;;;5054725;28;20173;-65
2021/06/29 07:56:43;;;;;;;6.72;6.13;;;23.20;65.90;;;;;;5053799;28;20649;-65
2021/06/29 07:59:09;;;;;;;6.22;5.72;;;23.20;66.00;;;;;;5054398;28;20215;-65
2021/06/29 08:01:34;;;;;;;6.97;6.28;;;23.20;65.90;;;;;;5054592;28;20167;-65
2021/06/29 08:04:00;;;;;;;6.93;6.28;;;23.20;65.90;;;;;;5053625;28;20190;-64
2021/06/29 08:06:25;;;;;;;6.35;5.75;;;23.20;65.90;;;;;;5054670;28;20175;-66
2021/06/29 08:08:51;;;;;;;7.18;6.47;;;23.20;65.90;;;;;;5054329;28;20532;-66
2021/06/29 08:11:16;;;;;;;7.55;6.85;;;23.20;66.00;;;;;;5054120;28;20182;-67
2021/06/29 08:13:42;;;;;;;7.25;6.55;;;23.20;66.40;;;;;;5054177;28;20183;-65
2021/06/29 08:16:07;;;;;;;7.13;6.53;;;23.30;66.30;;;;;;5054606;28;20544;-65
2021/06/29 08:18:34;;;;;;;7.20;6.55;;;23.30;66.30;;;;;;5053273;28;20261;-65
2021/06/29 08:21:00;;;;;;;7.28;6.65;;;23.20;66.40;;;;;;5054401;28;20179;-69
2021/06/29 08:23:26;;;;;;;7.10;6.50;;;23.20;66.70;;;;;;5054239;28;20181;-68
2021/06/29 08:25:51;;;;;;;10.23;6.88;;;23.30;67.30;;;;;;5053197;28;20186;-65
2021/06/29 08:28:17;;;;;;;13.10;6.72;;;23.20;66.70;;;;;;5054162;28;20258;-69
2021/06/29 08:30:42;;;;;;;8.93;7.35;;;23.30;67.00;;;;;;5054210;28;20181;-63
2021/06/29 08:33:11;;;;;;;26.83;7.15;;;23.60;66.00;;;;;;5053183;28;20229;-72
2021/06/29 08:35:41;;;;;;;14.02;7.05;;;23.60;65.90;;;;;;5053967;28;20179;-74
2021/06/29 08:38:06;;;;;;;9.07;7.20;;;23.50;65.90;;;;;;5053996;28;20206;-70
2021/06/29 08:40:35;;;;;;;13.65;6.93;;;23.50;66.60;;;;;;5052913;28;20190;-72
2021/06/29 08:43:00;;;;;;;13.27;7.95;;;23.50;67.60;;;;;;5053950;28;20547;-66
2021/06/29 08:45:26;;;;;;;18.92;8.30;;;23.50;67.50;;;;;;5036301;28;20173;-70
2021/06/29 08:47:51;;;;;;;16.17;8.43;;;23.50;67.80;;;;;;5035037;28;20183;-65
2021/06/29 08:50:18;;;;;;;12.13;7.07;;;23.50;68.00;;;;;;5035989;28;20171;-73
2021/06/29 08:52:44;;;;;;;16.48;7.78;;;23.40;68.10;;;;;;5053083;28;20646;-65
2021/06/29 08:55:10;;;;;;;11.70;7.25;;;23.40;68.30;;;;;;5035413;28;20233;-66
2021/06/29 08:57:35;;;;;;;13.32;7.65;;;23.40;68.30;;;;;;5053455;28;20199;-64
2021/06/29 09:00:01;;;;;;;13.95;7.65;;;23.40;68.50;;;;;;5053335;28;20623;-64
2021/06/29 09:02:27;;;;;;;14.35;7.63;;;23.40;68.80;;;;;;5053371;28;20175;-63
2021/06/29 09:05:00;;;;;;;16.38;9.07;;;23.40;69.10;;;;;;5053368;28;20179;-62
2021/06/29 09:07:26;;;;;;;14.82;8.45;;;23.40;69.10;;;;;;5052819;28;20250;-61
2021/06/29 09:09:54;;;;;;;21.13;8.20;;;23.60;68.10;;;;;;5053340;28;20249;-61
2021/06/29 09:12:46;;;;;;;16.35;8.32;;;23.70;69.00;;;;;;5053490;28;20182;-60
2021/06/29 09:15:33;;;;;;;18.27;10.30;;;23.60;69.20;;;;;;5052144;28;20209;-60
2021/06/29 09:18:04;;;;;;;13.73;12.27;;;23.50;68.60;;;;;;5053283;28;20301;-60
2021/06/29 09:20:31;;;;;;;17.13;15.00;;;23.40;68.90;;;;;;5053232;28;20193;-61
2021/06/29 09:22:58;;;;;;;16.25;14.50;;;23.40;69.00;;;;;;5052607;28;20257;-61
2021/06/29 09:25:28;;;;;;;16.50;14.82;;;23.40;69.00;;;;;;5053158;28;20175;-60
2021/06/29 09:27:54;;;;;;;16.15;14.48;;;23.40;68.90;;;;;;5052541;28;20651;-60
2021/06/29 09:30:42;;;;;;;16.30;14.27;;;23.40;69.00;;;;;;5052265;28;20175;-60
2021/06/29 09:33:12;;;;;;;14.48;12.90;;;23.40;69.00;;;;;;5052737;28;20306;-63
2021/06/29 09:35:38;;;;;;;17.75;14.40;;;23.50;69.10;;;;;;5052098;28;20183;-64
2021/06/29 09:38:04;;;;;;;15.73;12.95;;;23.40;69.70;;;;;;5052825;28;20203;-64
2021/06/29 09:40:30;;;;;;;15.30;12.63;;;23.50;69.80;;;;;;5052514;28;20645;-63
2021/06/29 09:43:22;;;;;;;15.90;11.82;;;23.50;70.20;;;;;;5052273;28;20175;-63
2021/06/29 09:45:51;;;;;;;16.50;11.93;;;23.50;70.00;;;;;;5047972;28;20215;-63
2021/06/29 09:48:18;;;;;;;16.50;11.95;;;23.50;70.30;;;;;;5052778;28;20183;-62
2021/06/29 09:50:49;;;;;;;14.52;12.15;;;23.50;70.20;;;;;;5051621;28;20186;-61
2021/06/29 09:53:26;;;;;;;12.15;10.90;;;23.50;70.00;;;;;;5052886;28;20183;-61
2021/06/29 09:55:57;;;;;;;12.70;10.18;;;23.60;69.90;;;;;;5052254;28;20756;-61
2021/06/29 09:58:22;;;;;;;13.77;10.95;;;23.60;69.70;;;;;;5051952;28;20219;-61
2021/06/29 10:00:57;;;;;;;11.95;10.63;;;23.60;69.90;;;;;;5052184;28;20179;-60
2021/06/29 10:03:37;;;;;;;11.88;10.43;;;23.60;69.70;;;;;;5051758;28;20652;-60
2021/06/29 10:06:09;;;;;;;11.65;9.43;;;23.60;69.30;;;;;;5051999;28;20179;-60
2021/06/29 10:08:35;;;;;;;12.23;9.85;;;23.60;69.00;;;;;;5052285;28;20182;-61
2021/06/29 10:11:14;;;;;;;11.40;9.10;;;23.70;68.90;;;;;;5051858;28;20507;-61
2021/06/29 10:13:45;;;;;;;11.05;9.90;;;23.70;68.80;;;;;;5052260;28;20177;-61
2021/06/29 10:16:12;;;;;;;11.60;10.15;;;23.70;68.70;;;;;;5052360;28;20178;-60
2021/06/29 10:18:40;;;;;;;10.75;9.65;;;23.70;68.40;;;;;;5051500;28;20242;-61
2021/06/29 10:21:16;;;;;;;10.63;9.60;;;23.80;68.30;;;;;;5052501;28;20592;-60
2021/06/29 10:23:42;;;;;;;10.25;9.32;;;23.80;68.30;;;;;;5052082;28;20225;-60
2021/06/29 10:26:08;;;;;;;10.23;9.10;;;23.80;68.30;;;;;;5051502;28;20199;-60
2021/06/29 10:28:34;;;;;;;10.27;9.27;;;23.70;68.20;;;;;;5051668;28;20572;-60
2021/06/29 10:30:59;;;;;;;11.55;9.68;;;23.70;68.20;;;;;;5052289;28;20171;-60
2021/06/29 10:33:26;;;;;;;10.63;9.57;;;23.70;68.20;;;;;;5033476;28;20234;-61
2021/06/29 10:35:51;;;;;;;9.98;9.02;;;23.70;68.30;;;;;;5051765;28;20187;-60
2021/06/29 10:38:18;;;;;;;9.88;8.57;;;23.70;68.20;;;;;;5034013;28;20306;-61
2021/06/29 10:40:43;;;;;;;9.70;8.70;;;23.70;68.30;;;;;;5017069;28;20171;-61
2021/06/29 10:43:09;;;;;;;10.00;9.00;;;23.70;68.20;;;;;;5034208;28;20177;-61
2021/06/29 10:45:36;;;;;;;11.45;9.30;;;23.70;68.20;;;;;;5033484;28;20182;-60
2021/06/29 10:48:21;;;;;;;9.95;8.95;;;23.80;68.10;;;;;;5051890;28;20721;-61
2021/06/29 10:50:48;;;;;;;9.98;9.07;;;23.80;67.90;;;;;;5051638;28;20179;-61
2021/06/29 10:53:35;;;;;;;10.63;8.90;;;23.80;68.00;;;;;;5051155;28;20651;-61
2021/06/29 10:56:03;;;;;;;9.35;8.45;;;23.80;68.00;;;;;;5052062;28;20185;-61
2021/06/29 10:58:36;;;;;;;9.63;8.63;;;23.80;68.00;;;;;;5051919;28;20214;-61
2021/06/29 11:01:29;;;;;;;9.13;8.32;;;23.80;68.00;;;;;;5051017;28;20665;-60
2021/06/29 11:03:57;;;;;;;9.52;8.32;;;23.80;68.00;;;;;;5048663;28;20627;-61
2021/06/29 11:06:47;;;;;;;9.43;8.60;;;23.90;68.90;;;;;;5051870;28;20201;-61
2021/06/29 11:09:16;;;;;;;10.18;9.27;;;23.80;68.00;;;;;;5051906;28;20223;-61
2021/06/29 11:11:42;;;;;;;10.18;9.05;;;23.80;68.10;;;;;;5033628;28;20278;-60
2021/06/29 11:14:24;;;;;;;9.43;8.63;;;23.70;68.20;;;;;;5016782;28;20269;-61
2021/06/29 11:16:51;;;;;;;9.70;8.70;;;23.70;68.30;;;;;;5054183;28;20178;-61
2021/06/29 11:19:17;;;;;;;9.15;8.20;;;23.70;68.60;;;;;;5055651;28;20321;-62
2021/06/29 11:21:42;;;;;;;10.00;9.07;;;23.70;68.40;;;;;;5036655;28;20178;-62
2021/06/29 11:24:36;;;;;;;9.43;8.45;;;23.70;68.40;;;;;;5037512;28;20541;-61
2021/06/29 11:27:02;;;;;;;9.52;8.52;;;23.80;68.40;;;;;;5049874;28;20499;-62
2021/06/29 11:29:38;;;;;;;11.32;9.32;;;23.80;68.30;;;;;;5045442;28;20183;-62
2021/06/29 11:32:24;;;;;;;9.32;8.57;;;23.90;68.20;;;;;;5043595;28;20246;-62
2021/06/29 11:34:50;;;;;;;9.63;7.90;;;23.90;68.10;;;;;;5024923;28;20230;-63
2021/06/29 11:37:15;;;;;;;9.63;8.70;;;23.90;68.90;;;;;;5044029;28;20179;-64
2021/06/29 11:39:41;;;;;;;9.45;8.57;;;23.90;68.00;;;;;;5026260;28;20237;-63
2021/06/29 11:42:20;;;;;;;9.38;8.50;;;23.90;67.90;;;;;;5044736;28;21056;-63
2021/06/29 11:44:47;;;;;;;9.20;8.40;;;23.90;67.90;;;;;;5045472;28;20171;-62
2021/06/29 11:47:17;;;;;;;8.85;7.95;;;24.00;67.80;;;;;;5042767;28;20665;-63
2021/06/29 11:49:48;;;;;;;9.80;8.77;;;24.00;67.60;;;;;;5033926;28;20184;-63
2021/06/29 11:52:13;;;;;;;10.02;9.05;;;24.10;67.40;;;;;;5035156;28;20241;-61
2021/06/29 11:54:58;;;;;;;9.00;8.23;;;24.20;67.00;;;;;;5034682;28;20184;-62
2021/06/29 11:57:35;;;;;;;8.68;7.97;;;24.30;66.50;;;;;;5033978;28;20638;-61
2021/06/29 12:00:05;;;;;;;8.43;7.70;;;24.40;66.30;;;;;;5034884;28;20202;-62
2021/06/29 12:02:32;;;;;;;8.40;7.70;;;24.50;66.00;;;;;;5034539;28;20172;-63
2021/06/29 12:05:16;;;;;;;9.07;8.27;;;24.50;66.10;;;;;;5034020;28;20171;-69
2021/06/29 12:07:55;;;;;;;12.07;8.10;;;24.40;66.30;;;;;;5034393;28;20179;-69
2021/06/29 12:10:24;;;;;;;8.85;7.97;;;24.30;66.60;;;;;;5034025;28;20179;-68
2021/06/29 12:12:56;;;;;;;9.23;8.25;;;24.20;66.70;;;;;;5034160;28;20206;-68
2021/06/29 12:15:24;;;;;;;9.30;8.30;;;24.20;66.70;;;;;;5034814;28;20183;-68
2021/06/29 12:18:01;;;;;;;8.98;8.07;;;24.20;66.80;;;;;;5033487;28;20203;-68
2021/06/29 12:20:32;;;;;;;8.73;7.82;;;24.20;66.70;;;;;;5034551;28;20270;-61
2021/06/29 12:22:58;;;;;;;9.88;7.65;;;24.20;66.40;;;;;;5034312;28;20623;-61
2021/06/29 12:25:28;;;;;;;8.43;7.70;;;24.20;67.20;;;;;;5033638;28;20183;-61
2021/06/29 12:27:58;;;;;;;8.57;7.82;;;24.20;66.40;;;;;;5033429;28;20276;-61
2021/06/29 12:30:36;;;;;;;9.60;8.40;;;24.20;66.40;;;;;;5034437;28;20172;-61
2021/06/29 12:33:31;;;;;;;9.43;8.45;;;24.20;66.30;;;;;;5033250;28;20311;-62
2021/06/29 12:36:04;;;;;;;9.48;8.63;;;24.20;66.20;;;;;;5033823;28;20186;-63
2021/06/29 12:38:34;;;;;;;9.48;8.60;;;24.20;66.30;;;;;;5015576;28;20626;-63
2021/06/29 12:41:02;;;;;;;9.07;8.27;;;24.20;66.40;;;;;;5034670;28;20168;-63
2021/06/29 12:43:36;;;;;;;9.88;8.80;;;24.20;66.50;;;;;;5034134;28;20642;-62
2021/06/29 12:46:17;;;;;;;9.18;8.27;;;24.30;66.30;;;;;;5033625;28;20199;-62
2021/06/29 12:49:10;;;;;;;10.07;8.98;;;24.30;66.20;;;;;;5033997;28;20241;-62